createdAt,value
2022-09-15T00:00:39.711Z,9.719151
2022-09-15T00:01:39.778Z,9.719154
2022-09-15T00:02:39.759Z,9.719077
2022-09-15T00:03:39.678Z,9.719076
2022-09-15T00:04:39.672Z,9.719174
2022-09-15T00:05:39.661Z,9.719213
2022-09-15T00:06:39.729Z,9.719163
2022-09-15T00:07:39.677Z,9.719028
2022-09-15T00:08:39.645Z,9.719235
2022-09-15T00:09:39.623Z,9.719147
2022-09-15T00:10:39.610Z,9.719181
2022-09-15T00:11:39.604Z,9.719103
2022-09-15T00:12:39.667Z,9.719078
2022-09-15T00:13:39.586Z,9.719054
2022-09-15T00:14:39.575Z,9.719184
2022-09-15T00:15:39.581Z,9.719185
2022-09-15T00:16:39.618Z,9.719236
2022-09-15T00:17:39.568Z,9.719093
2022-09-15T00:18:39.541Z,9.719095
2022-09-15T00:19:39.530Z,9.719106
2022-09-15T00:20:39.507Z,9.719158
2022-09-15T00:21:39.507Z,9.719260
2022-09-15T00:22:39.530Z,9.719170
2022-09-15T00:23:39.483Z,9.719177
2022-09-15T00:24:39.474Z,9.719164
2022-09-15T00:25:39.472Z,9.719283
2022-09-15T00:26:39.460Z,9.719197
2022-09-15T00:27:39.448Z,9.719211
2022-09-15T00:28:39.448Z,9.719245
2022-09-15T00:29:39.445Z,9.719194
2022-09-15T00:30:39.442Z,9.719290
2022-09-15T00:31:39.422Z,9.719240
2022-09-15T00:32:39.413Z,9.719150
2022-09-15T00:33:39.392Z,9.719229
2022-09-15T00:34:39.380Z,9.719212
2022-09-15T00:35:39.388Z,9.719181
2022-09-15T00:36:39.368Z,9.719265
2022-09-15T00:37:39.349Z,9.719274
2022-09-15T00:38:39.335Z,9.719313
2022-09-15T00:39:39.330Z,9.719252
2022-09-15T00:40:39.337Z,9.719280
2022-09-15T00:41:39.317Z,9.719265
2022-09-15T00:42:39.295Z,9.719315
2022-09-15T00:43:39.278Z,9.719285
2022-09-15T00:44:39.281Z,9.719392
2022-09-15T00:45:39.280Z,9.719267
2022-09-15T00:46:39.266Z,9.719302
2022-09-15T00:47:39.245Z,9.719275
2022-09-15T00:48:39.246Z,9.719249
2022-09-15T00:49:39.212Z,9.719232
2022-09-15T00:50:39.206Z,9.719213
2022-09-15T00:51:40.226Z,9.719189
2022-09-15T00:52:39.199Z,9.718959
2022-09-15T00:53:39.188Z,9.718806
2022-09-15T00:54:39.237Z,9.718792
2022-09-15T00:55:39.174Z,9.718793
2022-09-15T00:56:39.146Z,9.718955
2022-09-15T00:57:39.139Z,9.719042
2022-09-15T00:58:39.144Z,9.719009
2022-09-15T00:59:39.130Z,9.719079
2022-09-15T01:00:39.131Z,9.719044
2022-09-15T01:01:39.130Z,9.719065
2022-09-15T01:02:39.161Z,9.719120
2022-09-15T01:03:39.110Z,9.719122
2022-09-15T01:04:39.081Z,9.719146
2022-09-15T01:05:39.064Z,9.719028
2022-09-15T01:06:39.081Z,9.719110
2022-09-15T01:07:39.060Z,9.719034
2022-09-15T01:08:39.044Z,9.719065
2022-09-15T01:09:40.027Z,9.719000
2022-09-15T01:10:39.023Z,9.719070
2022-09-15T01:11:39.017Z,9.718981
2022-09-15T01:12:39.004Z,9.719109
2022-09-15T01:13:39.004Z,9.719050
2022-09-15T01:14:38.994Z,9.719111
2022-09-15T01:15:38.975Z,9.719007
2022-09-15T01:16:39.083Z,9.719025
2022-09-15T01:17:38.954Z,9.719115
2022-09-15T01:18:38.944Z,9.719148
2022-09-15T01:19:38.944Z,9.719175
2022-09-15T01:20:38.917Z,9.719010
2022-09-15T01:21:38.934Z,9.719126
2022-09-15T01:22:38.913Z,9.719032
2022-09-15T01:23:38.885Z,9.719070
2022-09-15T01:24:38.895Z,9.719097
2022-09-15T01:25:38.928Z,9.719043
2022-09-15T01:26:38.850Z,9.719127
2022-09-15T01:27:42.629Z,9.719084
2022-09-15T01:28:39.843Z,9.719031
2022-09-15T01:29:38.828Z,9.719109
2022-09-15T01:30:38.881Z,9.719159
2022-09-15T01:31:38.856Z,9.719153
2022-09-15T01:32:38.805Z,9.719193
2022-09-15T01:33:38.783Z,9.719143
2022-09-15T01:34:38.778Z,9.719048
2022-09-15T01:35:38.784Z,9.719104
2022-09-15T01:36:38.770Z,9.719094
2022-09-15T01:37:38.748Z,9.719123
2022-09-15T01:38:38.733Z,9.719134
2022-09-15T01:39:38.722Z,9.719218
2022-09-15T01:41:10.637Z,9.719163
2022-09-15T01:41:38.705Z,9.719165
2022-09-15T01:42:38.691Z,9.719123
2022-09-15T01:43:38.690Z,9.719123
2022-09-15T01:44:38.860Z,9.719109
2022-09-15T01:45:38.684Z,9.719124
2022-09-15T01:46:38.681Z,9.719167
2022-09-15T01:47:38.661Z,9.719040
2022-09-15T01:48:38.640Z,9.719139
2022-09-15T01:49:38.627Z,9.719170
2022-09-15T01:50:38.617Z,9.719263
2022-09-15T01:51:38.619Z,9.719182
2022-09-15T01:52:38.598Z,9.719237
2022-09-15T01:53:38.595Z,9.719133
2022-09-15T01:54:38.580Z,9.719154
2022-09-15T01:55:38.566Z,9.719241
2022-09-15T01:56:38.569Z,9.719133
2022-09-15T01:57:38.558Z,9.719126
2022-09-15T01:58:38.536Z,9.719135
2022-09-15T01:59:38.525Z,9.719157
2022-09-15T02:00:38.523Z,9.719430
2022-09-15T02:01:38.612Z,9.719367
2022-09-15T02:02:38.558Z,9.719133
2022-09-15T02:03:38.479Z,9.719111
2022-09-15T02:04:38.467Z,9.719189
2022-09-15T02:05:38.464Z,9.719248
2022-09-15T02:06:38.450Z,9.719190
2022-09-15T02:07:38.458Z,9.719201
2022-09-15T02:08:38.450Z,9.719226
2022-09-15T02:09:38.416Z,9.719285
2022-09-15T02:10:38.411Z,9.719260
2022-09-15T02:11:38.427Z,9.719238
2022-09-15T02:12:38.407Z,9.719262
2022-09-15T02:13:38.378Z,9.719268
2022-09-15T02:14:38.386Z,9.719219
2022-09-15T02:15:38.380Z,9.719077
2022-09-15T02:16:38.396Z,9.719129
2022-09-15T02:17:38.343Z,9.719130
2022-09-15T02:18:38.352Z,9.719100
2022-09-15T02:19:38.347Z,9.719061
2022-09-15T02:20:38.301Z,9.719084
2022-09-15T02:21:39.311Z,9.719194
2022-09-15T02:22:38.296Z,9.719246
2022-09-15T02:23:38.291Z,9.719157
2022-09-15T02:24:38.274Z,9.719074
2022-09-15T02:25:38.272Z,9.719100
2022-09-15T02:26:38.255Z,9.719122
2022-09-15T02:27:38.243Z,9.719160
2022-09-15T02:28:38.224Z,9.719148
2022-09-15T02:29:38.211Z,9.719181
2022-09-15T02:30:38.229Z,9.719237
2022-09-15T02:31:38.212Z,9.719256
2022-09-15T02:32:38.182Z,9.719378
2022-09-15T02:33:38.190Z,9.719251
2022-09-15T02:34:38.175Z,9.719202
2022-09-15T02:35:38.153Z,9.719200
2022-09-15T02:36:38.155Z,9.719095
2022-09-15T02:37:38.132Z,9.719178
2022-09-15T02:38:38.150Z,9.719194
2022-09-15T02:39:38.121Z,9.719131
2022-09-15T02:40:38.099Z,9.719229
2022-09-15T02:41:38.109Z,9.719252
2022-09-15T02:42:38.079Z,9.719213
2022-09-15T02:43:38.082Z,9.719206
2022-09-15T02:44:38.068Z,9.719149
2022-09-15T02:45:38.117Z,9.719069
2022-09-15T02:46:38.034Z,9.719044
2022-09-15T02:47:38.029Z,9.719099
2022-09-15T02:48:38.028Z,9.719187
2022-09-15T02:49:38.017Z,9.719115
2022-09-15T02:50:38.017Z,9.719149
2022-09-15T02:51:38.189Z,9.719189
2022-09-15T02:52:37.985Z,9.719204
2022-09-15T02:53:37.969Z,9.719171
2022-09-15T02:54:37.969Z,9.719234
2022-09-15T02:55:37.947Z,9.719208
2022-09-15T02:56:37.960Z,9.719274
2022-09-15T02:57:37.938Z,9.719201
2022-09-15T02:58:37.924Z,9.719206
2022-09-15T02:59:37.933Z,9.719259
2022-09-15T03:00:37.938Z,9.719052
2022-09-15T03:01:37.943Z,9.719123
2022-09-15T03:02:37.884Z,9.719172
2022-09-15T03:03:42.303Z,9.719205
2022-09-15T03:04:38.871Z,9.719194
2022-09-15T03:05:37.852Z,9.719275
2022-09-15T03:06:37.841Z,9.719252
2022-09-15T03:07:37.822Z,9.719147
2022-09-15T03:08:37.835Z,9.719154
2022-09-15T03:09:37.806Z,9.719266
2022-09-15T03:10:37.808Z,9.719355
2022-09-15T03:11:37.793Z,9.719445
2022-09-15T03:12:37.778Z,9.719465
2022-09-15T03:13:37.768Z,9.719429
2022-09-15T03:14:37.751Z,9.719445
2022-09-15T03:15:37.766Z,9.719453
2022-09-15T03:16:37.786Z,9.719398
2022-09-15T03:17:37.734Z,9.719326
2022-09-15T03:18:37.728Z,9.719334
2022-09-15T03:19:37.702Z,9.719391
2022-09-15T03:20:37.709Z,9.719343
2022-09-15T03:21:38.679Z,9.719270
2022-09-15T03:22:37.697Z,9.719240
2022-09-15T03:23:37.665Z,9.719257
2022-09-15T03:24:37.673Z,9.719119
2022-09-15T03:25:37.641Z,9.719336
2022-09-15T03:26:37.661Z,9.719401
2022-09-15T03:27:37.626Z,9.719246
2022-09-15T03:28:37.637Z,9.719120
2022-09-15T03:29:37.603Z,9.719035
2022-09-15T03:30:37.592Z,9.719124
2022-09-15T03:31:37.670Z,9.718989
2022-09-15T03:32:37.579Z,9.718946
2022-09-15T03:33:37.575Z,9.719049
2022-09-15T03:34:37.554Z,9.719147
2022-09-15T03:35:37.548Z,9.719130
2022-09-15T03:36:37.539Z,9.719213
2022-09-15T03:37:37.542Z,9.718864
2022-09-15T03:38:37.520Z,9.718892
2022-09-15T03:39:37.527Z,9.719014
2022-09-15T03:40:37.495Z,9.719075
2022-09-15T03:41:37.538Z,9.719076
2022-09-15T03:42:37.492Z,9.718911
2022-09-15T03:43:37.461Z,9.719366
2022-09-15T03:44:37.444Z,9.719224
2022-09-15T03:45:37.507Z,9.719099
2022-09-15T03:46:37.440Z,9.719129
2022-09-15T03:47:37.440Z,9.719199
2022-09-15T03:48:37.410Z,9.719207
2022-09-15T03:49:37.400Z,9.719244
2022-09-15T03:50:37.395Z,9.719269
2022-09-15T03:51:37.388Z,9.719253
2022-09-15T03:52:37.400Z,9.719305
2022-09-15T03:53:37.383Z,9.719425
2022-09-15T03:54:37.344Z,9.719223
2022-09-15T03:55:37.348Z,9.719298
2022-09-15T03:56:37.338Z,9.719426
2022-09-15T03:57:37.343Z,9.719452
2022-09-15T03:58:37.312Z,9.719453
2022-09-15T03:59:37.311Z,9.719412
2022-09-15T04:00:37.349Z,9.719209
2022-09-15T04:01:37.334Z,9.719285
2022-09-15T04:02:38.314Z,9.719347
2022-09-15T04:03:43.238Z,9.719288
2022-09-15T04:04:39.252Z,9.719437
2022-09-15T04:05:37.263Z,9.719347
2022-09-15T04:06:37.254Z,9.719532
2022-09-15T04:07:37.246Z,9.719583
2022-09-15T04:08:37.214Z,9.719500
2022-09-15T04:09:37.198Z,9.719440
2022-09-15T04:10:37.292Z,9.719461
2022-09-15T04:11:37.196Z,9.719398
2022-09-15T04:12:37.179Z,9.719297
2022-09-15T04:13:37.149Z,9.719227
2022-09-15T04:14:38.161Z,9.719299
2022-09-15T04:15:37.167Z,9.719285
2022-09-15T04:16:37.169Z,9.719209
2022-09-15T04:17:37.111Z,9.719248
2022-09-15T04:18:37.108Z,9.719315
2022-09-15T04:19:37.105Z,9.719383
2022-09-15T04:20:37.117Z,9.719399
2022-09-15T04:21:37.088Z,9.719322
2022-09-15T04:22:37.101Z,9.719122
2022-09-15T04:23:37.135Z,9.719143
2022-09-15T04:24:37.046Z,9.719451
2022-09-15T04:25:37.040Z,9.719648
2022-09-15T04:26:37.032Z,9.719689
2022-09-15T04:27:37.033Z,9.719625
2022-09-15T04:28:37.039Z,9.719539
2022-09-15T04:29:37.004Z,9.719510
2022-09-15T04:30:36.988Z,9.719496
2022-09-15T04:31:37.091Z,9.719563
2022-09-15T04:32:37.016Z,9.719604
2022-09-15T04:33:36.972Z,9.719596
2022-09-15T04:34:41.136Z,9.719596
2022-09-15T04:35:37.934Z,9.719390
2022-09-15T04:36:36.943Z,9.719421
2022-09-15T04:37:36.928Z,9.719393
2022-09-15T04:38:36.905Z,9.719350
2022-09-15T04:39:36.904Z,9.719328
2022-09-15T04:40:36.895Z,9.719320
2022-09-15T04:41:36.878Z,9.719404
2022-09-15T04:42:36.931Z,9.719355
2022-09-15T04:43:36.852Z,9.719385
2022-09-15T04:44:36.870Z,9.719388
2022-09-15T04:45:36.869Z,9.719397
2022-09-15T04:46:36.913Z,9.719333
2022-09-15T04:47:36.816Z,9.719285
2022-09-15T04:48:36.804Z,9.719370
2022-09-15T04:49:36.796Z,9.719317
2022-09-15T04:50:37.795Z,9.719387
2022-09-15T04:51:36.797Z,9.719274
2022-09-15T04:52:36.768Z,9.719318
2022-09-15T04:53:36.764Z,9.719307
2022-09-15T04:54:36.764Z,9.719367
2022-09-15T04:55:36.735Z,9.719301
2022-09-15T04:56:36.757Z,9.719320
2022-09-15T04:57:36.719Z,9.719369
2022-09-15T04:58:36.699Z,9.719371
2022-09-15T04:59:36.692Z,9.719374
2022-09-15T05:00:36.742Z,9.719339
2022-09-15T05:01:36.712Z,9.719511
2022-09-15T05:02:36.661Z,9.719348
2022-09-15T05:03:37.653Z,9.719311
2022-09-15T05:04:36.657Z,9.719105
2022-09-15T05:05:36.639Z,9.719197
2022-09-15T05:06:36.624Z,9.719293
2022-09-15T05:07:36.631Z,9.719272
2022-09-15T05:08:36.612Z,9.719212
2022-09-15T05:09:36.635Z,9.719254
2022-09-15T05:10:36.603Z,9.719221
2022-09-15T05:11:36.586Z,9.719185
2022-09-15T05:12:36.561Z,9.719090
2022-09-15T05:13:36.563Z,9.719169
2022-09-15T05:14:36.553Z,9.719294
2022-09-15T05:15:36.540Z,9.719311
2022-09-15T05:16:36.589Z,9.719287
2022-09-15T05:17:36.539Z,9.719270
2022-09-15T05:18:36.503Z,9.719237
2022-09-15T05:19:36.522Z,9.719147
2022-09-15T05:20:36.488Z,9.719158
2022-09-15T05:21:36.470Z,9.719228
2022-09-15T05:22:41.461Z,9.719127
2022-09-15T05:23:38.450Z,9.719152
2022-09-15T05:24:37.457Z,9.719200
2022-09-15T05:25:36.440Z,9.719132
2022-09-15T05:26:36.424Z,9.719199
2022-09-15T05:27:36.413Z,9.719359
2022-09-15T05:28:36.393Z,9.719162
2022-09-15T05:29:36.407Z,9.718856
2022-09-15T05:30:40.507Z,9.718916
2022-09-15T05:31:38.443Z,9.719180
2022-09-15T05:32:36.383Z,9.719183
2022-09-15T05:33:36.373Z,9.719155
2022-09-15T05:34:36.344Z,9.719184
2022-09-15T05:35:36.330Z,9.719166
2022-09-15T05:36:36.339Z,9.719245
2022-09-15T05:37:36.318Z,9.719175
2022-09-15T05:38:36.326Z,9.719136
2022-09-15T05:39:36.293Z,9.719198
2022-09-15T05:40:36.319Z,9.719126
2022-09-15T05:41:36.276Z,9.719231
2022-09-15T05:42:36.273Z,9.719222
2022-09-15T05:43:36.321Z,9.719264
2022-09-15T05:44:36.263Z,9.719161
2022-09-15T05:45:36.254Z,9.719209
2022-09-15T05:46:36.292Z,9.719310
2022-09-15T05:47:36.216Z,9.719304
2022-09-15T05:48:36.211Z,9.719273
2022-09-15T05:49:36.210Z,9.719195
2022-09-15T05:50:36.202Z,9.719305
2022-09-15T05:51:36.170Z,9.719284
2022-09-15T05:52:36.190Z,9.719257
2022-09-15T05:53:36.173Z,9.719316
2022-09-15T05:54:36.146Z,9.719370
2022-09-15T05:55:36.137Z,9.719396
2022-09-15T05:56:36.152Z,9.719381
2022-09-15T05:57:36.115Z,9.719283
2022-09-15T05:58:36.107Z,9.719205
2022-09-15T05:59:36.099Z,9.719255
2022-09-15T06:00:36.088Z,9.719195
2022-09-15T06:01:36.122Z,9.719138
2022-09-15T06:02:36.103Z,9.719182
2022-09-15T06:03:36.075Z,9.719133
2022-09-15T06:04:36.048Z,9.719184
2022-09-15T06:05:36.050Z,9.719184
2022-09-15T06:06:36.025Z,9.719230
2022-09-15T06:07:36.096Z,9.719236
2022-09-15T06:08:36.058Z,9.719270
2022-09-15T06:09:35.995Z,9.719222
2022-09-15T06:10:35.982Z,9.719270
2022-09-15T06:11:35.971Z,9.719238
2022-09-15T06:12:35.966Z,9.719252
2022-09-15T06:13:35.945Z,9.719255
2022-09-15T06:14:36.044Z,9.719259
2022-09-15T06:15:35.941Z,9.719161
2022-09-15T06:16:36.023Z,9.719111
2022-09-15T06:17:35.921Z,9.719131
2022-09-15T06:18:35.904Z,9.719108
2022-09-15T06:19:35.914Z,9.719042
2022-09-15T06:20:35.924Z,9.719284
2022-09-15T06:21:35.874Z,9.719409
2022-09-15T06:22:35.889Z,9.719237
2022-09-15T06:23:35.874Z,9.719238
2022-09-15T06:24:35.848Z,9.718945
2022-09-15T06:25:35.912Z,9.718651
2022-09-15T06:26:35.839Z,9.719200
2022-09-15T06:27:35.840Z,9.719329
2022-09-15T06:28:35.820Z,9.719345
2022-09-15T06:29:35.807Z,9.719418
2022-09-15T06:30:35.802Z,9.719239
2022-09-15T06:31:35.959Z,9.718967
2022-09-15T06:32:35.796Z,9.718991
2022-09-15T06:33:35.759Z,9.719378
2022-09-15T06:34:35.745Z,9.719379
2022-09-15T06:35:35.771Z,9.719364
2022-09-15T06:36:35.715Z,9.719298
2022-09-15T06:37:35.757Z,9.719329
2022-09-15T06:38:35.701Z,9.719372
2022-09-15T06:39:35.701Z,9.719392
2022-09-15T06:40:35.781Z,9.719230
2022-09-15T06:41:58.815Z,9.719257
2022-09-15T06:42:37.693Z,9.719336
2022-09-15T06:43:35.658Z,9.719216
2022-09-15T06:44:36.703Z,9.719174
2022-09-15T06:45:35.643Z,9.719325
2022-09-15T06:46:35.657Z,9.719423
2022-09-15T06:47:35.642Z,9.719397
2022-09-15T06:48:35.606Z,9.719106
2022-09-15T06:49:35.636Z,9.719257
2022-09-15T06:50:35.581Z,9.719147
2022-09-15T06:51:35.619Z,9.719353
2022-09-15T06:52:35.610Z,9.719266
2022-09-15T06:53:35.563Z,9.719494
2022-09-15T06:54:35.542Z,9.719409
2022-09-15T06:55:35.548Z,9.719694
2022-09-15T06:56:38.127Z,9.719465
2022-09-15T06:57:35.522Z,9.719350
2022-09-15T06:58:35.563Z,9.719093
2022-09-15T06:59:35.522Z,9.719406
2022-09-15T07:00:35.485Z,9.719196
2022-09-15T07:01:35.477Z,9.719281
2022-09-15T07:02:35.621Z,9.719428
2022-09-15T07:03:35.555Z,9.719223
2022-09-15T07:04:35.480Z,9.719031
2022-09-15T07:05:35.469Z,9.719302
2022-09-15T07:06:35.445Z,9.719335
2022-09-15T07:07:35.436Z,9.719173
2022-09-15T07:08:35.415Z,9.719015
2022-09-15T07:09:36.021Z,9.718791
2022-09-15T07:10:35.402Z,9.718883
2022-09-15T07:11:35.462Z,9.719008
2022-09-15T07:12:35.373Z,9.719357
2022-09-15T07:13:35.364Z,9.719273
2022-09-15T07:14:35.348Z,9.719322
2022-09-15T07:15:35.337Z,9.719124
2022-09-15T07:16:35.437Z,9.719192
2022-09-15T07:17:35.330Z,9.719303
2022-09-15T07:18:37.655Z,9.719126
2022-09-15T07:19:36.301Z,9.719177
2022-09-15T07:20:35.278Z,9.719089
2022-09-15T07:21:35.273Z,9.719063
2022-09-15T07:22:35.291Z,9.719054
2022-09-15T07:23:35.249Z,9.719192
2022-09-15T07:24:35.251Z,9.719238
2022-09-15T07:25:35.232Z,9.719166
2022-09-15T07:26:35.232Z,9.719204
2022-09-15T07:27:35.221Z,9.719181
2022-09-15T07:28:35.244Z,9.719086
2022-09-15T07:29:37.827Z,9.719049
2022-09-15T07:30:36.188Z,9.718980
2022-09-15T07:31:35.242Z,9.719066
2022-09-15T07:32:35.163Z,9.719092
2022-09-15T07:33:35.174Z,9.719090
2022-09-15T07:34:35.137Z,9.719248
2022-09-15T07:35:35.153Z,9.719183
2022-09-15T07:36:35.135Z,9.719299
2022-09-15T07:37:35.109Z,9.719077
2022-09-15T07:38:35.100Z,9.719127
2022-09-15T07:39:35.142Z,9.719233
2022-09-15T07:40:35.134Z,9.719154
2022-09-15T07:42:06.961Z,9.719099
2022-09-15T07:42:35.606Z,9.719117
2022-09-15T07:43:36.053Z,9.719246
2022-09-15T07:44:35.043Z,9.719263
2022-09-15T07:45:35.031Z,9.719163
2022-09-15T07:46:35.008Z,9.719071
2022-09-15T07:47:35.004Z,9.719117
2022-09-15T07:48:34.996Z,9.719011
2022-09-15T07:49:34.988Z,9.719314
2022-09-15T07:50:35.971Z,9.719207
2022-09-15T07:51:34.961Z,9.719187
2022-09-15T07:52:34.960Z,9.719079
2022-09-15T07:53:34.948Z,9.719088
2022-09-15T07:54:34.945Z,9.719240
2022-09-15T07:55:34.918Z,9.719226
2022-09-15T07:56:34.908Z,9.719130
2022-09-15T07:57:34.913Z,9.719171
2022-09-15T07:58:34.877Z,9.719068
2022-09-15T07:59:39.333Z,9.719113
2022-09-15T08:00:35.917Z,9.719095
2022-09-15T08:01:34.909Z,9.719131
2022-09-15T08:02:34.857Z,9.719174
2022-09-15T08:03:34.835Z,9.719290
2022-09-15T08:04:34.831Z,9.719229
2022-09-15T08:05:39.417Z,9.719246
2022-09-15T08:06:36.809Z,9.719159
2022-09-15T08:07:34.795Z,9.719129
2022-09-15T08:08:34.814Z,9.719131
2022-09-15T08:09:34.779Z,9.719134
2022-09-15T08:10:34.760Z,9.719253
2022-09-15T08:11:34.771Z,9.719312
2022-09-15T08:12:34.743Z,9.719221
2022-09-15T08:13:34.762Z,9.719109
2022-09-15T08:14:34.736Z,9.719065
2022-09-15T08:15:34.730Z,9.719041
2022-09-15T08:16:34.735Z,9.719165
2022-09-15T08:17:34.695Z,9.719222
2022-09-15T08:18:34.707Z,9.719226
2022-09-15T08:19:34.710Z,9.719230
2022-09-15T08:20:34.662Z,9.719167
2022-09-15T08:21:34.677Z,9.719061
2022-09-15T08:22:34.652Z,9.719069
2022-09-15T08:23:34.656Z,9.719097
2022-09-15T08:24:34.630Z,9.719153
2022-09-15T08:25:34.621Z,9.719112
2022-09-15T08:26:34.630Z,9.719159
2022-09-15T08:27:34.614Z,9.719196
2022-09-15T08:28:34.580Z,9.719233
2022-09-15T08:29:34.573Z,9.719247
2022-09-15T08:30:34.579Z,9.719337
2022-09-15T08:31:34.685Z,9.719286
2022-09-15T08:32:34.549Z,9.719169
2022-09-15T08:33:34.540Z,9.719226
2022-09-15T08:34:34.525Z,9.719250
2022-09-15T08:35:34.512Z,9.719340
2022-09-15T08:36:34.568Z,9.719247
2022-09-15T08:37:34.500Z,9.719198
2022-09-15T08:38:34.483Z,9.719268
2022-09-15T08:39:34.470Z,9.719270
2022-09-15T08:40:34.545Z,9.719198
2022-09-15T08:41:34.477Z,9.719193
2022-09-15T08:42:34.443Z,9.719207
2022-09-15T08:43:34.528Z,9.719198
2022-09-15T08:44:34.427Z,9.719257
2022-09-15T08:45:34.424Z,9.719483
2022-09-15T08:46:34.445Z,9.719354
2022-09-15T08:47:34.397Z,9.719667
2022-09-15T08:48:34.394Z,9.719835
2022-09-15T08:49:50.688Z,9.719952
2022-09-15T08:50:36.380Z,9.719962
2022-09-15T08:51:34.371Z,9.719847
2022-09-15T08:52:34.343Z,9.719856
2022-09-15T08:53:34.331Z,9.719388
2022-09-15T08:54:34.399Z,9.719570
2022-09-15T08:55:34.314Z,9.719773
2022-09-15T08:56:34.315Z,9.720033
2022-09-15T08:57:34.303Z,9.720104
2022-09-15T08:58:34.313Z,9.720164
2022-09-15T08:59:34.293Z,9.720017
2022-09-15T09:00:34.310Z,9.719968
2022-09-15T09:01:35.341Z,9.720507
2022-09-15T09:02:34.295Z,9.720303
2022-09-15T09:03:34.273Z,9.720262
2022-09-15T09:04:34.220Z,9.719789
2022-09-15T09:05:34.241Z,9.719836
2022-09-15T09:06:34.210Z,9.720215
2022-09-15T09:07:34.206Z,9.719931
2022-09-15T09:08:34.185Z,9.719860
2022-09-15T09:09:34.181Z,9.719890
2022-09-15T09:10:34.191Z,9.719374
2022-09-15T09:11:34.165Z,9.719508
2022-09-15T09:12:34.143Z,9.719664
2022-09-15T09:13:35.684Z,9.719687
2022-09-15T09:14:35.129Z,9.719564
2022-09-15T09:15:34.168Z,9.719518
2022-09-15T09:16:34.139Z,9.719707
2022-09-15T09:17:34.102Z,9.719348
2022-09-15T09:18:34.102Z,9.719314
2022-09-15T09:19:34.093Z,9.719129
2022-09-15T09:20:34.051Z,9.719239
2022-09-15T09:21:35.083Z,9.719162
2022-09-15T09:22:34.054Z,9.719165
2022-09-15T09:23:34.025Z,9.719229
2022-09-15T09:24:34.017Z,9.719049
2022-09-15T09:25:34.004Z,9.719148
2022-09-15T09:26:35.013Z,9.719174
2022-09-15T09:27:33.988Z,9.719079
2022-09-15T09:28:33.978Z,9.719088
2022-09-15T09:29:33.975Z,9.718991
2022-09-15T09:30:34.157Z,9.719013
2022-09-15T09:31:33.953Z,9.719107
2022-09-15T09:32:33.950Z,9.719110
2022-09-15T09:33:33.942Z,9.719084
2022-09-15T09:34:33.923Z,9.719120
2022-09-15T09:35:33.927Z,9.719072
2022-09-15T09:36:33.898Z,9.719033
2022-09-15T09:37:33.887Z,9.719102
2022-09-15T09:38:33.876Z,9.719129
2022-09-15T09:39:33.892Z,9.719109
2022-09-15T09:40:33.933Z,9.719013
2022-09-15T09:41:33.852Z,9.719055
2022-09-15T09:42:33.840Z,9.719009
2022-09-15T09:43:33.828Z,9.719194
2022-09-15T09:44:33.824Z,9.719124
2022-09-15T09:45:33.825Z,9.719234
2022-09-15T09:46:33.890Z,9.719206
2022-09-15T09:47:33.794Z,9.719090
2022-09-15T09:48:33.779Z,9.719206
2022-09-15T09:49:33.779Z,9.719211
2022-09-15T09:50:33.766Z,9.719135
2022-09-15T09:51:33.773Z,9.719183
2022-09-15T09:52:33.764Z,9.719193
2022-09-15T09:53:33.733Z,9.719186
2022-09-15T09:54:33.725Z,9.719160
2022-09-15T09:55:33.711Z,9.719161
2022-09-15T09:56:33.702Z,9.719310
2022-09-15T09:57:38.575Z,9.719351
2022-09-15T09:58:34.686Z,9.719437
2022-09-15T09:59:33.686Z,9.719390
2022-09-15T10:00:33.683Z,9.719295
2022-09-15T10:01:33.672Z,9.719238
2022-09-15T10:02:33.669Z,9.719329
2022-09-15T10:03:33.634Z,9.719177
2022-09-15T10:04:33.660Z,9.718769
2022-09-15T10:05:33.615Z,9.719111
2022-09-15T10:06:33.609Z,9.719262
2022-09-15T10:07:33.623Z,9.719357
2022-09-15T10:08:33.622Z,9.718959
2022-09-15T10:09:33.634Z,9.719050
2022-09-15T10:10:33.580Z,9.718946
2022-09-15T10:11:33.581Z,9.718957
2022-09-15T10:12:33.614Z,9.719167
2022-09-15T10:13:33.568Z,9.719249
2022-09-15T10:14:33.618Z,9.719280
2022-09-15T10:15:33.561Z,9.719297
2022-09-15T10:16:33.585Z,9.719433
2022-09-15T10:17:33.517Z,9.719388
2022-09-15T10:18:33.497Z,9.719238
2022-09-15T10:19:33.494Z,9.719212
2022-09-15T10:20:33.489Z,9.719176
2022-09-15T10:21:33.466Z,9.719288
2022-09-15T10:22:33.483Z,9.719236
2022-09-15T10:23:33.460Z,9.719255
2022-09-15T10:24:33.459Z,9.719170
2022-09-15T10:25:49.668Z,9.719201
2022-09-15T10:26:35.428Z,9.719113
2022-09-15T10:27:33.415Z,9.719168
2022-09-15T10:28:33.410Z,9.719221
2022-09-15T10:29:33.380Z,9.719070
2022-09-15T10:30:33.390Z,9.718986
2022-09-15T10:31:33.422Z,9.718873
2022-09-15T10:32:33.353Z,9.718730
2022-09-15T10:33:33.345Z,9.718661
2022-09-15T10:34:33.345Z,9.718912
2022-09-15T10:35:33.323Z,9.718999
2022-09-15T10:36:33.345Z,9.719051
2022-09-15T10:37:33.312Z,9.719099
2022-09-15T10:38:33.323Z,9.719164
2022-09-15T10:39:33.288Z,9.719151
2022-09-15T10:40:33.375Z,9.719109
2022-09-15T10:41:33.291Z,9.719184
2022-09-15T10:42:33.280Z,9.719214
2022-09-15T10:43:33.252Z,9.719204
2022-09-15T10:44:33.248Z,9.719148
2022-09-15T10:45:33.313Z,9.719127
2022-09-15T10:46:36.399Z,9.719096
2022-09-15T10:47:35.227Z,9.719111
2022-09-15T10:48:33.242Z,9.719131
2022-09-15T10:49:33.207Z,9.719188
2022-09-15T10:50:33.197Z,9.719126
2022-09-15T10:51:33.170Z,9.719220
2022-09-15T10:52:33.169Z,9.719116
2022-09-15T10:53:33.144Z,9.719109
2022-09-15T10:54:33.138Z,9.719071
2022-09-15T10:55:51.738Z,9.719078
2022-09-15T10:56:35.123Z,9.719121
2022-09-15T10:57:33.130Z,9.719142
2022-09-15T10:58:33.121Z,9.719085
2022-09-15T10:59:33.092Z,9.719096
2022-09-15T11:00:33.121Z,9.719067
2022-09-15T11:01:33.080Z,9.719142
2022-09-15T11:02:33.148Z,9.719051
2022-09-15T11:03:33.051Z,9.719029
2022-09-15T11:04:33.079Z,9.719265
2022-09-15T11:05:33.028Z,9.719215
2022-09-15T11:06:33.024Z,9.719247
2022-09-15T11:07:33.006Z,9.719179
2022-09-15T11:08:33.014Z,9.719230
2022-09-15T11:09:34.006Z,9.719336
2022-09-15T11:10:32.987Z,9.719368
2022-09-15T11:11:32.965Z,9.719341
2022-09-15T11:12:32.984Z,9.719414
2022-09-15T11:13:32.973Z,9.719306
2022-09-15T11:14:32.951Z,9.719264
2022-09-15T11:15:32.943Z,9.719354
2022-09-15T11:16:32.985Z,9.719539
2022-09-15T11:17:32.919Z,9.719417
2022-09-15T11:18:32.937Z,9.719387
2022-09-15T11:19:32.929Z,9.719397
2022-09-15T11:20:32.890Z,9.719547
2022-09-15T11:21:32.888Z,9.719495
2022-09-15T11:22:32.869Z,9.719575
2022-09-15T11:23:32.855Z,9.719518
2022-09-15T11:24:32.861Z,9.719465
2022-09-15T11:25:32.853Z,9.719330
2022-09-15T11:26:32.830Z,9.719409
2022-09-15T11:27:32.813Z,9.719385
2022-09-15T11:28:32.805Z,9.719436
2022-09-15T11:29:32.803Z,9.719524
2022-09-15T11:30:32.797Z,9.719606
2022-09-15T11:31:32.848Z,9.719548
2022-09-15T11:32:32.795Z,9.719413
2022-09-15T11:33:32.752Z,9.719273
2022-09-15T11:34:32.743Z,9.719403
2022-09-15T11:35:32.758Z,9.719331
2022-09-15T11:36:32.736Z,9.719326
2022-09-15T11:37:32.753Z,9.719257
2022-09-15T11:38:32.723Z,9.719176
2022-09-15T11:39:32.701Z,9.719359
2022-09-15T11:40:32.719Z,9.719279
2022-09-15T11:41:32.671Z,9.719481
2022-09-15T11:42:32.691Z,9.719223
2022-09-15T11:43:32.659Z,9.719240
2022-09-15T11:44:32.639Z,9.719268